Time;durP1;ratioP1;P1;durP2;ratioP2;P2;SDS_P1;SDS_P2;PMS_P1;PMS_P2;Temp;Humidity;BMP_temperature;BMP_pressure;BME280_temperature;BME280_humidity;BME280_pressure;Samples;Min_cycle;Max_cycle;Signal;HPM_P1;HPM_P2
2021/04/04 00:02:00;;;;;;;6.20;3.70;;;;;;;6.38;59.33;96932.25;5136432;27;20192;-62
2021/04/04 00:04:26;;;;;;;3.40;3.10;;;;;;;6.31;56.92;96932.19;5134474;27;20229;-62
2021/04/04 00:06:51;;;;;;;6.10;3.53;;;;;;;5.45;60.55;96937.31;5136125;27;20592;-65
2021/04/04 00:09:19;;;;;;;3.20;2.93;;;;;;;5.12;62.64;96942.03;5135949;27;20686;-61
2021/04/04 00:11:48;;;;;;;4.87;3.13;;;;;;;5.52;61.10;96934.78;5136110;27;20168;-62
2021/04/04 00:14:13;;;;;;;6.80;3.00;;;;;;;4.62;64.79;96952.19;5136100;27;20401;-63
2021/04/04 00:16:39;;;;;;;5.10;2.97;;;;;;;4.63;64.38;96955.63;5136289;27;20732;-61
2021/04/04 00:19:04;;;;;;;6.20;3.90;;;;;;;4.55;64.49;96945.28;5130087;27;20246;-63
2021/04/04 00:21:30;;;;;;;3.23;2.87;;;;;;;4.96;63.08;96936.16;5115074;28;20179;-62
2021/04/04 00:23:55;;;;;;;4.93;3.40;;;;;;;5.31;62.03;96938.09;5115025;28;20655;-61
2021/04/04 00:26:21;;;;;;;3.63;3.33;;;;;;;4.75;63.69;96933.41;5116257;27;20179;-61
2021/04/04 00:28:46;;;;;;;11.17;3.77;;;;;;;4.80;63.44;96929.28;5138668;27;20525;-62
2021/04/04 00:31:12;;;;;;;7.20;2.90;;;;;;;4.46;64.31;96941.91;5156317;27;20175;-63
2021/04/04 00:33:37;;;;;;;4.30;3.13;;;;;;;4.46;65.79;96941.91;5151726;27;20167;-61
2021/04/04 00:36:03;;;;;;;6.80;3.27;;;;;;;4.53;65.28;96942.84;5156219;27;20927;-62
2021/04/04 00:38:28;;;;;;;3.80;2.77;;;;;;;4.29;66.10;96945.63;5155642;27;20209;-61
2021/04/04 00:40:54;;;;;;;3.60;2.87;;;;;;;4.34;66.14;96947.69;5156270;27;20179;-63
2021/04/04 00:43:19;;;;;;;3.87;2.60;;;;;;;4.12;66.24;96939.69;5156180;27;20171;-61
2021/04/04 00:45:44;;;;;;;3.70;3.07;;;;;;;4.22;66.26;96941.28;5143260;27;20214;-63
2021/04/04 00:48:10;;;;;;;9.60;3.13;;;;;;;4.59;65.10;96933.53;5134066;27;20210;-63
2021/04/04 00:50:38;;;;;;;3.80;2.80;;;;;;;4.75;64.43;96944.63;5135439;27;20172;-63
2021/04/04 00:53:05;;;;;;;3.10;2.80;;;;;;;4.75;63.74;96936.81;5135191;27;20180;-63
2021/04/04 00:55:31;;;;;;;7.93;3.90;;;;;;;5.08;64.83;96935.56;5135094;27;20920;-60
2021/04/04 00:57:57;;;;;;;5.73;3.23;;;;;;;5.31;63.85;96930.28;5134582;27;20422;-62
2021/04/04 01:00:25;;;;;;;3.30;3.00;;;;;;;5.43;63.54;96939.28;5133550;27;20183;-61
2021/04/04 01:02:53;;;;;;;4.87;3.17;;;;;;;5.54;63.34;96928.41;5134195;27;20172;-62
2021/04/04 01:05:24;;;;;;;4.10;3.23;;;;;;;5.65;61.95;96927.94;5135156;27;20459;-61
2021/04/04 01:07:50;;;;;;;3.40;3.10;;;;;;;5.82;60.90;96925.94;5134602;27;20404;-63
2021/04/04 01:10:17;;;;;;;3.77;2.60;;;;;;;5.64;63.54;96930.72;5134507;27;20418;-63
2021/04/04 01:12:53;;;;;;;5.47;2.73;;;;;;;5.28;62.54;96929.81;5134982;27;20204;-63
2021/04/04 01:15:24;;;;;;;3.53;3.10;;;;;;;5.56;61.70;96926.41;5134057;27;20418;-61
2021/04/04 01:17:52;;;;;;;3.43;2.93;;;;;;;5.18;62.21;96923.09;5134486;27;20438;-61
2021/04/04 01:20:28;;;;;;;7.50;3.20;;;;;;;5.12;62.39;96926.41;5133190;27;20457;-60
2021/04/04 01:23:15;;;;;;;3.43;3.13;;;;;;;5.04;62.58;96926.47;5114515;28;20403;-61
2021/04/04 01:25:53;;;;;;;4.80;2.47;;;;;;;4.93;63.41;96920.88;5134701;27;20392;-61
2021/04/04 01:28:23;;;;;;;3.50;2.37;;;;;;;5.17;62.89;96926.69;5132936;27;20835;-63
2021/04/04 01:30:50;;;;;;;4.87;3.47;;;;;;;5.18;62.79;96922.28;5127286;27;20431;-62
2021/04/04 01:33:18;;;;;;;6.37;2.80;;;;;;;5.34;62.30;96924.72;5140885;27;20416;-61
2021/04/04 01:35:49;;;;;;;3.67;3.37;;;;;;;5.23;62.25;96925.97;5141545;27;20432;-62
2021/04/04 01:38:22;;;;;;;5.80;3.10;;;;;;;5.54;60.43;96925.81;5126755;27;20468;-63
2021/04/04 01:40:54;;;;;;;4.97;3.17;;;;;;;5.52;60.90;96924.38;5133910;27;20397;-61
2021/04/04 01:43:21;;;;;;;4.87;2.70;;;;;;;5.47;59.97;96924.88;5113871;28;20509;-63
2021/04/04 01:45:47;;;;;;;2.93;2.60;;;;;;;5.21;62.15;96927.94;5122497;27;20409;-63
2021/04/04 01:48:13;;;;;;;6.00;3.00;;;;;;;5.12;61.16;96929.03;5134134;27;20454;-62
2021/04/04 01:50:42;;;;;;;3.53;2.83;;;;;;;5.02;61.55;96925.03;5131384;27;20422;-63
2021/04/04 01:53:09;;;;;;;3.03;2.80;;;;;;;4.92;61.68;96927.09;5132277;27;20418;-63
2021/04/04 01:55:37;;;;;;;3.80;2.80;;;;;;;4.37;63.67;96926.53;5122136;27;20419;-62
2021/04/04 01:58:03;;;;;;;3.77;2.50;;;;;;;4.37;64.58;96929.13;5132376;28;20410;-62
2021/04/04 02:00:28;;;;;;;3.43;3.13;;;;;;;4.29;64.96;96921.41;5135526;27;20494;-60
2021/04/04 02:02:55;;;;;;;3.40;2.90;;;;;;;4.16;65.89;96928.00;5154818;27;20503;-60
2021/04/04 02:05:24;;;;;;;3.00;2.70;;;;;;;3.93;66.87;96916.72;5135490;27;20244;-62
2021/04/04 02:07:51;;;;;;;9.27;3.30;;;;;;;3.83;66.92;96910.13;5116581;27;20420;-60
2021/04/04 02:10:22;;;;;;;4.70;3.00;;;;;;;3.92;67.85;96909.91;5116804;28;20452;-63
2021/04/04 02:12:52;;;;;;;9.77;2.97;;;;;;;3.87;67.36;96912.22;5134295;27;20433;-62
2021/04/04 02:15:20;;;;;;;4.13;3.33;;;;;;;3.60;67.96;96915.28;5137112;27;20424;-61
2021/04/04 02:17:47;;;;;;;2.87;2.50;;;;;;;3.93;67.35;96910.72;5137971;27;20423;-63
2021/04/04 02:20:18;;;;;;;5.53;2.60;;;;;;;4.03;65.80;96903.50;5137996;27;20461;-63
2021/04/04 02:22:45;;;;;;;3.00;2.63;;;;;;;4.34;65.66;96909.50;5119828;27;20422;-61
2021/04/04 02:25:13;;;;;;;6.07;3.00;;;;;;;4.38;65.81;96902.16;5144220;27;20420;-62
2021/04/04 02:27:45;;;;;;;3.13;2.73;;;;;;;4.11;64.61;96903.47;5158497;27;20416;-62
2021/04/04 02:30:13;;;;;;;6.93;2.50;;;;;;;3.61;67.99;96906.50;5141333;27;20482;-63
2021/04/04 02:32:44;;;;;;;4.23;3.10;;;;;;;3.69;67.25;96906.47;5133220;27;20484;-61
2021/04/04 02:35:12;;;;;;;4.80;2.53;;;;;;;3.97;66.58;96899.81;5141859;27;20420;-62
2021/04/04 02:37:41;;;;;;;3.90;2.50;;;;;;;3.89;66.53;96905.06;5146423;27;20414;-63
2021/04/04 02:40:11;;;;;;;5.40;2.40;;;;;;;3.70;67.19;96905.47;5127298;27;20966;-61
2021/04/04 02:42:38;;;;;;;3.83;2.30;;;;;;;3.67;68.03;96911.03;5125660;27;20429;-61
2021/04/04 02:45:06;;;;;;;3.10;2.50;;;;;;;3.79;67.44;96901.03;5135997;27;20457;-63
2021/04/04 02:47:56;;;;;;;3.63;2.20;;;;;;;3.25;69.02;96904.50;5128261;27;20929;-63
2021/04/04 02:50:24;;;;;;;4.70;2.93;;;;;;;3.27;69.16;96911.16;5138716;27;20430;-63
2021/04/04 02:52:52;;;;;;;2.80;2.60;;;;;;;3.46;69.01;96909.97;5130579;27;20512;-62
2021/04/04 02:55:18;;;;;;;8.00;3.57;;;;;;;3.28;69.28;96904.19;5126816;27;20416;-63
2021/04/04 02:57:46;;;;;;;3.90;3.27;;;;;;;2.89;70.73;96904.91;5137188;27;20412;-61
2021/04/04 03:00:17;;;;;;;4.57;3.20;;;;;;;2.75;71.29;96897.00;5136635;27;20553;-63
2021/04/04 03:02:42;;;;;;;3.73;2.77;;;;;;;2.56;72.12;96897.31;5136235;27;20455;-63
2021/04/04 03:05:09;;;;;;;3.40;2.47;;;;;;;2.76;71.56;96896.00;5137697;27;20409;-63
2021/04/04 03:07:36;;;;;;;3.90;2.73;;;;;;;2.77;71.10;96900.22;5136228;27;20580;-63
2021/04/04 03:10:05;;;;;;;6.60;3.90;;;;;;;2.97;71.23;96904.88;5137058;27;20431;-63
2021/04/04 03:12:33;;;;;;;4.27;3.20;;;;;;;2.56;72.78;96900.72;5137158;27;20416;-61
2021/04/04 03:15:00;;;;;;;4.93;2.93;;;;;;;2.77;71.54;96902.81;5137269;27;20766;-62
2021/04/04 03:17:28;;;;;;;5.17;3.13;;;;;;;2.71;71.71;96899.09;5136744;27;20519;-61
2021/04/04 03:19:54;;;;;;;3.43;2.37;;;;;;;2.48;72.49;96895.53;5137177;27;20452;-61
2021/04/04 03:22:21;;;;;;;5.93;3.63;;;;;;;2.36;73.91;96912.38;5137080;27;20776;-63
2021/04/04 03:24:49;;;;;;;5.37;3.03;;;;;;;2.35;72.91;96909.94;5135965;27;20737;-61
2021/04/04 03:27:17;;;;;;;4.70;3.10;;;;;;;2.17;74.95;96906.69;5134644;27;20430;-61
2021/04/04 03:29:42;;;;;;;6.93;3.13;;;;;;;2.47;73.33;96908.66;5129572;27;20452;-61
2021/04/04 03:32:08;;;;;;;3.80;3.30;;;;;;;2.75;71.47;96900.41;5130451;27;20421;-63
2021/04/04 03:34:35;;;;;;;6.30;4.10;;;;;;;2.77;71.63;96905.41;5136201;27;20169;-61
2021/04/04 03:37:01;;;;;;;9.13;3.10;;;;;;;2.95;70.94;96909.44;5115683;28;20255;-63
2021/04/04 03:39:27;;;;;;;6.50;3.20;;;;;;;2.98;70.74;96903.94;5120449;27;20546;-61
2021/04/04 03:41:56;;;;;;;7.10;3.00;;;;;;;3.71;68.76;96912.31;5136513;27;20346;-63
2021/04/04 03:44:24;;;;;;;6.70;3.50;;;;;;;3.64;68.70;96897.56;5136488;27;20416;-62
2021/04/04 03:46:51;;;;;;;3.63;2.60;;;;;;;2.69;71.78;96903.63;5136364;27;20896;-64
2021/04/04 03:49:19;;;;;;;4.50;2.83;;;;;;;3.01;72.44;96906.19;5134441;27;20424;-61
2021/04/04 03:51:45;;;;;;;5.57;2.83;;;;;;;2.92;72.54;96906.34;5117044;27;20516;-62
2021/04/04 03:54:13;;;;;;;10.10;3.83;;;;;;;3.02;71.10;96909.59;5128354;27;20464;-63
2021/04/04 03:56:42;;;;;;;4.27;3.00;;;;;;;3.19;70.71;96900.00;5116031;28;20407;-63
2021/04/04 03:59:10;;;;;;;5.10;3.20;;;;;;;3.46;70.71;96904.78;5115211;28;20463;-61
2021/04/04 04:01:39;;;;;;;5.40;4.90;;;;;;;3.83;67.95;96897.94;5115723;27;20420;-61
2021/04/04 04:04:07;;;;;;;5.00;3.30;;;;;;;3.89;67.61;96901.66;5115630;28;20497;-63
2021/04/04 04:06:33;;;;;;;4.93;2.60;;;;;;;3.67;69.10;96902.41;5115809;28;20408;-62
2021/04/04 04:09:03;;;;;;;3.00;2.67;;;;;;;3.61;69.45;96905.66;5130430;27;20425;-61
2021/04/04 04:11:30;;;;;;;3.90;2.80;;;;;;;4.05;67.24;96902.38;5136055;27;20404;-62
2021/04/04 04:13:56;;;;;;;5.20;2.97;;;;;;;4.12;66.82;96899.88;5135905;27;20413;-61
2021/04/04 04:16:22;;;;;;;4.70;2.80;;;;;;;3.96;66.56;96894.78;5116250;27;20463;-61
2021/04/04 04:18:48;;;;;;;3.87;2.87;;;;;;;3.09;69.93;96897.56;5114806;28;20500;-61
2021/04/04 04:21:14;;;;;;;6.33;3.17;;;;;;;2.81;72.10;96906.69;5116530;27;20445;-62
2021/04/04 04:23:41;;;;;;;3.37;2.80;;;;;;;2.73;72.46;96901.53;5123615;27;20614;-60
2021/04/04 04:26:10;;;;;;;3.50;3.00;;;;;;;2.88;72.43;96905.09;5119439;27;20414;-61
2021/04/04 04:28:38;;;;;;;6.97;3.00;;;;;;;3.00;71.12;96903.75;5114844;28;20473;-62
2021/04/04 04:31:08;;;;;;;7.13;3.20;;;;;;;2.69;71.98;96895.03;5116163;27;20412;-61
2021/04/04 04:33:34;;;;;;;4.53;2.77;;;;;;;2.39;73.15;96887.94;5116394;27;20410;-60
2021/04/04 04:36:00;;;;;;;6.57;3.00;;;;;;;2.22;74.54;96888.88;5119344;27;20483;-61
2021/04/04 04:38:26;;;;;;;4.33;3.53;;;;;;;2.48;74.41;96890.34;5134673;27;20546;-61
2021/04/04 04:40:55;;;;;;;6.03;3.47;;;;;;;2.26;75.06;96892.78;5135598;27;20856;-62
2021/04/04 04:43:22;;;;;;;5.57;3.03;;;;;;;2.19;75.44;96889.22;5135372;27;20398;-62
2021/04/04 04:45:48;;;;;;;6.13;3.37;;;;;;;2.60;73.79;96889.06;5133303;27;20927;-62
2021/04/04 04:48:14;;;;;;;3.30;2.37;;;;;;;2.79;72.57;96885.31;5129641;27;20445;-62
2021/04/04 04:50:42;;;;;;;3.80;3.17;;;;;;;2.82;71.33;96898.75;5129065;27;20430;-63
2021/04/04 04:53:07;;;;;;;10.17;3.20;;;;;;;2.79;72.11;96895.69;5126912;27;20175;-61
2021/04/04 04:55:34;;;;;;;5.23;3.10;;;;;;;2.67;72.09;96890.00;5123501;27;20415;-61
2021/04/04 04:58:00;;;;;;;3.27;2.83;;;;;;;2.48;73.51;96889.53;5134773;27;20216;-62
2021/04/04 05:00:27;;;;;;;2.70;2.50;;;;;;;2.32;74.40;96895.53;5132921;27;20482;-62
2021/04/04 05:02:53;;;;;;;4.70;3.37;;;;;;;2.09;76.58;96897.94;5114480;28;20323;-61
2021/04/04 05:05:18;;;;;;;4.03;3.00;;;;;;;2.09;76.33;96904.91;5126809;27;20926;-62
2021/04/04 05:07:46;;;;;;;5.07;3.63;;;;;;;2.10;75.95;96894.38;5134965;27;20415;-61
2021/04/04 05:10:13;;;;;;;5.30;3.07;;;;;;;1.94;76.68;96894.34;5123111;27;20195;-63
2021/04/04 05:12:52;;;;;;;7.70;4.10;;;;;;;1.88;77.33;96896.78;5114301;28;20404;-61
2021/04/04 05:15:19;;;;;;;4.20;3.27;;;;;;;1.91;78.33;96897.25;5114034;28;20428;-61
2021/04/04 05:17:44;;;;;;;4.20;3.03;;;;;;;1.95;77.05;96903.75;5114967;27;20411;-62
2021/04/04 05:20:11;;;;;;;5.10;2.90;;;;;;;2.15;76.80;96893.09;5114076;27;20461;-63
2021/04/04 05:22:38;;;;;;;6.10;2.47;;;;;;;2.31;76.07;96899.09;5114246;28;20419;-62
2021/04/04 05:25:06;;;;;;;4.33;3.13;;;;;;;2.17;75.88;96906.69;5132386;27;20912;-62
2021/04/04 05:27:31;;;;;;;3.40;2.53;;;;;;;1.89;76.95;96903.56;5133970;27;20433;-62
2021/04/04 05:30:04;;;;;;;5.30;3.47;;;;;;;2.09;77.50;96903.13;5129466;27;20991;-60
2021/04/04 05:32:29;;;;;;;5.30;3.80;;;;;;;2.03;76.93;96900.34;5125860;27;20550;-62
2021/04/04 05:34:55;;;;;;;5.83;3.70;;;;;;;1.95;77.50;96901.16;5125190;27;20423;-63
2021/04/04 05:37:20;;;;;;;4.93;3.63;;;;;;;2.13;77.60;96895.84;5113501;28;20169;-62
2021/04/04 05:39:46;;;;;;;5.43;3.13;;;;;;;2.10;77.78;96906.53;5113717;28;20195;-61
2021/04/04 05:42:12;;;;;;;5.70;3.53;;;;;;;2.50;76.81;96903.16;5133707;27;20172;-60
2021/04/04 05:45:02;;;;;;;4.10;3.20;;;;;;;2.90;74.18;96896.16;5129415;27;20170;-62
2021/04/04 05:47:55;;;;;;;9.23;4.20;;;;;;;3.29;72.86;96895.41;5113140;28;20415;-63
2021/04/04 05:50:46;;;;;;;7.10;4.17;;;;;;;3.61;70.32;96896.09;5118894;28;20416;-63
2021/04/04 05:53:24;;;;;;;3.43;3.13;;;;;;;3.77;71.55;96890.81;5117632;28;20815;-61
2021/04/04 05:56:07;;;;;;;3.57;3.23;;;;;;;4.03;70.57;96886.13;5141959;27;20474;-61
2021/04/04 05:58:45;;;;;;;5.33;2.93;;;;;;;4.18;69.53;96891.41;5152752;27;20453;-61
2021/04/04 06:01:29;;;;;;;7.63;3.50;;;;;;;4.25;68.49;96881.13;5122057;27;20425;-63
2021/04/04 06:04:32;;;;;;;8.87;3.80;;;;;;;4.28;68.40;96884.19;5113662;28;20403;-60
2021/04/04 06:07:09;;;;;;;4.93;4.23;;;;;;;4.42;69.07;96890.44;5113615;28;20391;-60
2021/04/04 06:09:55;;;;;;;8.00;3.63;;;;;;;4.64;68.88;96892.22;5124184;28;20434;-63
2021/04/04 06:13:08;;;;;;;7.53;3.67;;;;;;;4.70;67.19;96886.28;5134472;27;20448;-61
2021/04/04 06:15:44;;;;;;;4.57;3.57;;;;;;;4.84;67.69;96890.69;5097524;27;20441;-63
2021/04/04 06:18:23;;;;;;;6.70;3.63;;;;;;;5.18;67.47;96886.63;5133814;27;20774;-61
2021/04/04 06:20:57;;;;;;;4.07;3.17;;;;;;;5.38;66.18;96883.50;5134023;27;20409;-62
2021/04/04 06:23:33;;;;;;;6.33;3.70;;;;;;;5.44;65.11;96886.19;5128594;27;20425;-63
2021/04/04 06:26:05;;;;;;;5.83;3.20;;;;;;;5.53;64.21;96892.09;5133827;27;20401;-62
2021/04/04 06:28:59;;;;;;;5.27;2.77;;;;;;;5.22;64.34;96881.84;5131452;27;20450;-60
2021/04/04 06:31:41;;;;;;;7.57;2.60;;;;;;;5.13;64.95;96881.16;5127389;27;20783;-61
2021/04/04 06:34:11;;;;;;;6.60;3.70;;;;;;;4.40;66.92;96892.38;5129238;28;20421;-61
2021/04/04 06:36:42;;;;;;;3.57;3.10;;;;;;;4.73;67.17;96888.56;5127169;28;20903;-61
2021/04/04 06:39:19;;;;;;;6.90;2.90;;;;;;;4.79;66.25;96872.22;5112890;28;20475;-63
2021/04/04 06:41:51;;;;;;;7.87;3.23;;;;;;;5.43;66.11;96878.53;5113458;28;20399;-61
2021/04/04 06:44:41;;;;;;;6.80;3.50;;;;;;;5.98;62.19;96871.81;5114436;28;20420;-61
2021/04/04 06:47:19;;;;;;;6.00;3.63;;;;;;;6.41;60.20;96869.25;5123569;28;20444;-64
2021/04/04 06:50:06;;;;;;;6.17;3.60;;;;;;;6.46;60.37;96875.53;5131883;27;20414;-63
2021/04/04 06:52:41;;;;;;;7.27;3.60;;;;;;;6.64;63.01;96877.69;5133968;27;20417;-63
2021/04/04 06:55:12;;;;;;;5.43;3.90;;;;;;;6.66;60.88;96881.72;5128985;27;20422;-61
2021/04/04 06:58:01;;;;;;;5.73;4.03;;;;;;;6.75;60.56;96885.81;5125040;28;20413;-60
2021/04/04 07:00:56;;;;;;;3.93;3.40;;;;;;;7.07;60.65;96887.06;5134906;27;20453;-63
2021/04/04 07:03:26;;;;;;;5.93;4.20;;;;;;;7.42;60.04;96888.69;5113773;27;20427;-62
2021/04/04 07:06:09;;;;;;;6.30;4.00;;;;;;;7.48;60.72;96893.16;5131295;27;20900;-61
2021/04/04 07:08:59;;;;;;;7.70;3.77;;;;;;;6.65;58.97;96887.16;5142256;27;20897;-63
2021/04/04 07:11:40;;;;;;;7.50;4.03;;;;;;;7.20;59.80;96881.94;5126781;27;20438;-62
2021/04/04 07:14:45;;;;;;;9.10;4.30;;;;;;;7.35;58.82;96887.03;5157859;27;20428;-64
2021/04/04 07:17:32;;;;;;;10.00;4.50;;;;;;;7.53;59.04;96890.78;5126180;27;20505;-64
2021/04/04 07:20:24;;;;;;;6.20;4.33;;;;;;;7.95;59.62;96887.13;5157734;27;20512;-63
2021/04/04 07:23:14;;;;;;;5.77;4.53;;;;;;;8.00;61.40;96890.78;5117654;27;20425;-63
2021/04/04 07:25:45;;;;;;;6.37;4.70;;;;;;;8.25;59.85;96889.28;5116458;28;20759;-62
2021/04/04 07:28:11;;;;;;;12.87;5.43;;;;;;;8.15;58.86;96898.47;5115986;28;20399;-63
2021/04/04 07:30:58;;;;;;;7.00;5.00;;;;;;;7.23;59.00;96884.16;5116056;27;20402;-61
2021/04/04 07:33:45;;;;;;;8.53;4.27;;;;;;;7.95;59.75;96885.31;5116240;28;20222;-62
2021/04/04 07:36:30;;;;;;;7.43;4.33;;;;;;;8.27;58.63;96889.06;5130822;27;20428;-63
2021/04/04 07:39:37;;;;;;;8.50;4.80;;;;;;;8.30;57.91;96891.28;5136006;27;20465;-62
2021/04/04 07:42:24;;;;;;;8.63;5.17;;;;;;;8.32;55.87;96892.72;5136083;27;20494;-63
2021/04/04 07:45:09;;;;;;;11.00;4.80;;;;;;;8.32;56.44;96900.56;5136312;27;20444;-62
2021/04/04 07:48:05;;;;;;;9.67;4.60;;;;;;;8.41;57.85;96895.94;5136027;27;20421;-63
2021/04/04 07:50:37;;;;;;;6.20;4.93;;;;;;;8.18;58.64;96903.31;5119609;27;20483;-63
2021/04/04 07:53:22;;;;;;;8.30;5.10;;;;;;;8.72;57.45;96892.75;5115832;28;20425;-63
2021/04/04 07:55:57;;;;;;;5.50;4.77;;;;;;;8.33;56.05;96894.31;5115767;28;20423;-63
2021/04/04 07:58:50;;;;;;;6.90;4.73;;;;;;;8.04;56.69;96899.81;5115225;28;20504;-63
2021/04/04 08:01:28;;;;;;;6.50;5.07;;;;;;;8.55;56.96;96894.16;5131850;27;20429;-63
2021/04/04 08:04:10;;;;;;;8.90;4.87;;;;;;;9.07;55.80;96891.56;5131933;27;20432;-61
2021/04/04 08:06:42;;;;;;;6.13;4.70;;;;;;;8.59;53.84;96896.16;5132422;27;20411;-60
2021/04/04 08:09:13;;;;;;;8.70;4.90;;;;;;;7.62;57.52;96889.63;5128822;27;20448;-60
2021/04/04 08:11:53;;;;;;;9.20;5.20;;;;;;;8.08;56.87;96895.81;5152883;27;20408;-61
2021/04/04 08:14:37;;;;;;;8.23;5.00;;;;;;;8.85;56.73;96892.75;5141969;27;20402;-60
2021/04/04 08:17:03;;;;;;;7.97;5.60;;;;;;;9.25;54.73;96884.69;5126697;27;20426;-62
2021/04/04 08:19:29;;;;;;;7.63;5.20;;;;;;;9.27;55.67;96895.78;5111642;28;20913;-61
2021/04/04 08:22:26;;;;;;;6.30;4.37;;;;;;;9.58;53.87;96889.88;5111790;28;20496;-60
2021/04/04 08:24:59;;;;;;;6.70;5.20;;;;;;;9.53;52.59;96888.88;5111691;28;20245;-61
2021/04/04 08:28:01;;;;;;;9.10;4.50;;;;;;;9.62;52.24;96888.41;5148575;27;20422;-64
2021/04/04 08:30:45;;;;;;;6.47;5.23;;;;;;;9.79;51.06;96881.72;5152653;27;20933;-64
2021/04/04 08:33:17;;;;;;;9.80;5.27;;;;;;;9.99;52.69;96884.25;5116122;27;20431;-64
2021/04/04 08:35:45;;;;;;;8.10;5.67;;;;;;;10.16;51.16;96880.97;5112772;27;20904;-63
2021/04/04 08:38:18;;;;;;;5.00;4.60;;;;;;;10.07;51.30;96878.78;5111050;28;20490;-63
2021/04/04 08:40:45;;;;;;;7.17;5.33;;;;;;;9.99;49.69;96879.81;5110880;28;20427;-63
2021/04/04 08:43:14;;;;;;;6.47;5.43;;;;;;;10.13;50.15;96884.03;5111541;28;20470;-63
2021/04/04 08:46:04;;;;;;;7.80;4.80;;;;;;;9.99;49.95;96882.44;5111305;28;20862;-63
2021/04/04 08:48:31;;;;;;;6.13;4.00;;;;;;;9.51;48.60;96883.03;5131130;27;20453;-63
2021/04/04 08:50:58;;;;;;;4.67;4.23;;;;;;;10.11;50.29;96888.66;5129552;27;20483;-64
2021/04/04 08:53:37;;;;;;;6.60;4.00;;;;;;;10.29;46.70;96882.75;5131333;27;20440;-63
2021/04/04 08:56:03;;;;;;;6.90;4.20;;;;;;;10.38;46.13;96888.53;5131859;27;20409;-63
2021/04/04 08:58:38;;;;;;;4.97;3.87;;;;;;;10.92;45.11;96881.69;5131192;27;20433;-64
2021/04/04 09:01:09;;;;;;;4.97;3.60;;;;;;;11.27;44.77;96876.72;5131312;27;20425;-64
2021/04/04 09:03:37;;;;;;;3.80;3.33;;;;;;;11.04;46.80;96876.53;5128352;27;20430;-64
2021/04/04 09:06:05;;;;;;;5.83;4.37;;;;;;;11.10;44.75;96873.88;5131530;27;20421;-64
2021/04/04 09:08:32;;;;;;;4.77;3.40;;;;;;;11.24;43.20;96877.16;5131083;27;20437;-63
2021/04/04 09:10:59;;;;;;;6.83;5.20;;;;;;;11.23;41.49;96876.34;5117856;27;20918;-64
2021/04/04 09:13:31;;;;;;;9.10;3.70;;;;;;;11.34;42.93;96880.91;5111965;27;20853;-64
2021/04/04 09:15:58;;;;;;;4.77;3.70;;;;;;;11.57;44.45;96880.28;5110296;28;20411;-64
2021/04/04 09:18:25;;;;;;;5.80;3.40;;;;;;;11.70;42.06;96874.91;5118595;27;20442;-64
2021/04/04 09:21:00;;;;;;;7.50;4.33;;;;;;;11.58;44.19;96875.81;5117409;27;20438;-63
2021/04/04 09:23:27;;;;;;;9.83;3.43;;;;;;;12.13;42.84;96872.97;5113218;27;20548;-63
2021/04/04 09:25:55;;;;;;;5.70;3.60;;;;;;;12.38;41.82;96867.53;5121022;27;20926;-65
2021/04/04 09:28:24;;;;;;;3.67;3.07;;;;;;;12.37;39.59;96874.63;5117219;27;20465;-64
2021/04/04 09:30:50;;;;;;;5.17;3.23;;;;;;;12.58;40.14;96875.16;5130792;27;20981;-65
2021/04/04 09:33:25;;;;;;;3.13;2.80;;;;;;;12.67;40.04;96866.72;5124357;27;20426;-64
2021/04/04 09:35:56;;;;;;;6.10;2.90;;;;;;;12.68;39.05;96859.63;5110405;28;20169;-63
2021/04/04 09:38:32;;;;;;;4.83;3.80;;;;;;;12.96;38.31;96862.41;5109894;28;20506;-63
2021/04/04 09:40:59;;;;;;;3.13;2.90;;;;;;;13.08;37.44;96869.31;5112241;27;20766;-61
2021/04/04 09:43:26;;;;;;;8.70;3.97;;;;;;;13.17;38.42;96867.97;5118499;27;20448;-61
2021/04/04 09:46:02;;;;;;;6.17;3.80;;;;;;;12.34;38.26;96869.84;5130938;27;20413;-60
2021/04/04 09:48:27;;;;;;;3.63;3.33;;;;;;;12.87;37.01;96859.31;5123575;27;21081;-61
2021/04/04 09:51:05;;;;;;;5.20;4.20;;;;;;;13.30;36.49;96849.25;5130174;27;20414;-60
2021/04/04 09:53:45;;;;;;;3.50;3.17;;;;;;;13.06;38.15;96868.75;5130792;27;20172;-70
2021/04/04 09:56:19;;;;;;;5.70;3.90;;;;;;;13.38;37.05;96854.19;5129163;27;20421;-71
2021/04/04 09:58:48;;;;;;;3.60;2.60;;;;;;;13.24;36.01;96857.31;5130225;27;20963;-68
2021/04/04 10:01:22;;;;;;;3.63;2.40;;;;;;;13.56;33.54;96855.91;5130659;27;20406;-63
2021/04/04 10:04:02;;;;;;;3.50;2.20;;;;;;;13.37;34.25;96855.22;5130191;27;20579;-72
2021/04/04 10:06:29;;;;;;;5.73;3.70;;;;;;;13.58;35.73;96851.19;5129409;28;20414;-69
2021/04/04 10:09:02;;;;;;;4.40;3.20;;;;;;;13.70;36.66;96851.97;5130106;27;20874;-65
2021/04/04 10:11:31;;;;;;;3.43;2.90;;;;;;;13.87;36.24;96842.28;5128828;27;20422;-66
2021/04/04 10:14:16;;;;;;;5.50;3.50;;;;;;;13.38;34.63;96850.75;5130584;27;20417;-64
2021/04/04 10:16:42;;;;;;;4.20;3.43;;;;;;;13.57;36.76;96844.28;5128413;27;20422;-66
2021/04/04 10:19:15;;;;;;;3.70;3.07;;;;;;;13.78;33.95;96838.41;5128186;27;20507;-66
2021/04/04 10:21:54;;;;;;;7.97;3.13;;;;;;;13.72;32.98;96839.34;5128520;27;20160;-63
2021/04/04 10:24:30;;;;;;;9.57;5.20;;;;;;;14.11;34.07;96825.31;5144998;27;21048;-64
2021/04/04 10:27:18;;;;;;;13.60;9.03;;;;;;;14.08;33.17;96836.34;5152055;27;20409;-63
2021/04/04 10:29:44;;;;;;;4.67;3.40;;;;;;;14.27;33.81;96835.19;5141260;27;20431;-63
2021/04/04 10:32:10;;;;;;;3.50;2.67;;;;;;;14.45;34.35;96828.88;5113347;28;20406;-64
2021/04/04 10:34:45;;;;;;;5.40;2.70;;;;;;;14.52;34.80;96820.78;5114597;28;20434;-62
2021/04/04 10:37:23;;;;;;;5.20;3.53;;;;;;;14.40;31.68;96818.22;5123286;27;20168;-62
2021/04/04 10:39:59;;;;;;;2.90;2.70;;;;;;;14.62;33.85;96820.97;5132903;27;20450;-63
2021/04/04 10:42:25;;;;;;;4.10;3.00;;;;;;;14.66;31.92;96819.41;5134911;27;20401;-60
2021/04/04 10:45:06;;;;;;;6.70;4.67;;;;;;;14.89;33.13;96814.78;5137643;27;20402;-60
2021/04/04 10:47:31;;;;;;;3.23;2.90;;;;;;;14.97;32.61;96809.09;5137212;27;20885;-60
2021/04/04 10:49:58;;;;;;;3.63;3.00;;;;;;;15.10;32.67;96813.25;5137618;27;20422;-62
2021/04/04 10:52:24;;;;;;;3.93;2.90;;;;;;;14.98;32.51;96813.34;5135896;27;20176;-59
2021/04/04 10:54:49;;;;;;;3.80;3.47;;;;;;;14.98;33.28;96818.63;5137306;27;20414;-60
2021/04/04 10:57:15;;;;;;;3.60;3.30;;;;;;;15.10;30.61;96808.75;5136987;27;20413;-61
2021/04/04 10:59:41;;;;;;;6.97;5.87;;;;;;;15.11;30.99;96799.78;5136803;27;20557;-61
2021/04/04 11:02:07;;;;;;;4.80;4.20;;;;;;;15.28;34.24;96810.34;5116697;28;20173;-61
2021/04/04 11:04:33;;;;;;;3.90;3.50;;;;;;;15.52;32.64;96806.47;5116754;28;20408;-60
2021/04/04 11:07:01;;;;;;;3.73;3.43;;;;;;;15.26;31.68;96804.47;5117529;27;20173;-62
2021/04/04 11:09:26;;;;;;;3.97;3.63;;;;;;;15.39;31.45;96797.00;5116388;28;20193;-62
2021/04/04 11:11:58;;;;;;;6.10;4.00;;;;;;;15.59;30.13;96798.31;5116776;28;20414;-60
2021/04/04 11:14:25;;;;;;;3.53;3.23;;;;;;;15.44;32.83;96802.38;5116720;28;20250;-61
2021/04/04 11:16:56;;;;;;;4.33;3.00;;;;;;;15.07;31.69;96792.56;5116301;28;20422;-67
2021/04/04 11:19:25;;;;;;;6.40;4.03;;;;;;;15.30;33.32;96792.38;5126357;27;20511;-61
2021/04/04 11:21:53;;;;;;;3.93;3.63;;;;;;;15.48;32.48;96791.28;5130923;27;20459;-61
2021/04/04 11:24:20;;;;;;;5.20;3.63;;;;;;;14.30;32.22;96783.66;5129045;27;20965;-61
2021/04/04 11:26:50;;;;;;;3.63;3.33;;;;;;;14.87;33.21;96785.13;5153894;27;20409;-63
2021/04/04 11:29:18;;;;;;;5.53;3.83;;;;;;;15.20;32.66;96777.13;5126099;27;20545;-60
2021/04/04 11:31:51;;;;;;;5.50;3.67;;;;;;;15.61;32.53;96773.19;5134020;27;20426;-61
2021/04/04 11:34:28;;;;;;;3.90;3.60;;;;;;;15.84;32.19;96770.28;5133101;27;20413;-64
2021/04/04 11:36:54;;;;;;;4.00;3.67;;;;;;;15.84;30.69;96774.78;5114730;27;20415;-64
2021/04/04 11:39:20;;;;;;;3.33;3.03;;;;;;;15.65;32.84;96766.38;5112153;28;20458;-62
2021/04/04 11:41:54;;;;;;;4.33;3.03;;;;;;;16.13;29.62;96758.41;5112358;28;20411;-61
2021/04/04 11:44:24;;;;;;;3.57;3.27;;;;;;;16.17;32.04;96762.16;5111903;28;20414;-61
2021/04/04 11:46:56;;;;;;;5.07;3.63;;;;;;;15.59;29.32;96764.69;5111274;28;20431;-67
2021/04/04 11:49:46;;;;;;;3.93;3.60;;;;;;;15.62;29.98;96766.06;5132385;27;20429;-62
2021/04/04 11:52:11;;;;;;;4.10;3.40;;;;;;;16.09;30.74;96761.78;5132739;27;20409;-61
2021/04/04 11:54:49;;;;;;;3.57;3.27;;;;;;;16.21;31.74;96752.66;5132660;27;20422;-61
2021/04/04 11:57:19;;;;;;;4.23;3.83;;;;;;;16.41;32.36;96749.38;5129625;27;20173;-62
2021/04/04 11:59:47;;;;;;;4.20;3.50;;;;;;;16.12;29.93;96756.00;5130653;27;20490;-63
2021/04/04 12:02:16;;;;;;;5.80;4.00;;;;;;;16.16;31.06;96747.28;5132554;27;20411;-62